Decoded Metar for TIST (ST. THOMAS in VIRGIN ISL.) (IATA:STT) | Meteo·Mobile Aviation Weather
aviador You're here:

TIST Decoded Metar

ST. THOMAS in VIRGIN ISL.
Report Time2018-08-22 05:53:00
UTC Time2018-08-22 06:58:25
Flight Rules vfr VFR
Wind090° at 08 kt
W.Decomp.*RWY 10: 8.0 kt HW 0.4 kt RCW
W.Rank090° ranks 1
Current wind is below 090° avg. (8.4)
Visibility9999 m
Phenomena:N/A
Clouds:N/A
Expected CloudBase > 1,600 ft AGL from Temp-Dew spread
CeilingNone
Temp27°C (ISA +12)
Dew Point23°C (79% RH)
Heat Index29.6°C
QNH1017 hPa
Density Alt1,647 ft
Elevation23 ft
Report Wrong Elevation
Raw Report
TIST 220553Z AUTO 09008KT 10SM CLR 27/23 A3004=

Extra information for TIST:More info

Metar Taf Metar & Taf Last 4 Metars F.Rules Stats Wind Profile Meteogram Temp Stats Airport Information Weather charts Add Link Nearby VenuesMetar ALERT Operation Metar Decoded Social comments